Time;durP1;ratioP1;P1;durP2;ratioP2;P2;SDS_P1;SDS_P2;PMS_P1;PMS_P2;Temp;Humidity;BMP_temperature;BMP_pressure;BME280_temperature;BME280_humidity;BME280_pressure;Samples;Min_cycle;Max_cycle;Signal;HPM_P1;HPM_P2
2023/05/07 00:00:27;;;;;;;2.60;2.40;;;20.00;97.80;;;;;;4979955;28;20418;-77
2023/05/07 00:02:53;;;;;;;3.50;2.53;;;19.90;97.80;;;;;;4991762;28;20430;-75
2023/05/07 00:05:19;;;;;;;2.87;2.57;;;19.90;97.80;;;;;;4960392;28;20461;-75
2023/05/07 00:07:48;;;;;;;2.43;2.23;;;19.90;97.90;;;;;;4996504;28;20405;-75
2023/05/07 00:10:16;;;;;;;4.07;2.90;;;19.90;97.90;;;;;;4949512;29;20442;-75
2023/05/07 00:12:42;;;;;;;2.90;2.40;;;19.90;97.90;;;;;;4978616;28;20681;-76
2023/05/07 00:15:11;;;;;;;3.10;2.50;;;19.90;97.90;;;;;;4979039;28;20416;-75
2023/05/07 00:17:37;;;;;;;3.17;2.50;;;19.90;97.90;;;;;;4960702;28;20425;-75
2023/05/07 00:20:05;;;;;;;3.43;2.23;;;19.90;97.90;;;;;;4943647;28;20908;-75
2023/05/07 00:22:34;;;;;;;3.20;2.30;;;19.90;98.00;;;;;;4960559;28;20776;-75
2023/05/07 00:25:04;;;;;;;3.13;2.90;;;19.90;98.00;;;;;;4979263;28;20419;-76
2023/05/07 00:27:32;;;;;;;2.90;2.70;;;19.90;98.00;;;;;;4945572;28;20412;-77
2023/05/07 00:29:59;;;;;;;2.93;2.50;;;19.90;98.10;;;;;;4975569;28;20457;-75
2023/05/07 00:32:29;;;;;;;3.30;2.53;;;19.80;98.00;;;;;;4958870;28;20433;-75
2023/05/07 00:34:58;;;;;;;3.60;2.00;;;19.80;98.10;;;;;;4955790;29;20451;-75
2023/05/07 00:37:24;;;;;;;2.60;2.40;;;19.80;98.10;;;;;;4985493;28;20762;-75
2023/05/07 00:39:50;;;;;;;2.53;2.10;;;19.80;98.10;;;;;;4988515;28;20461;-75
2023/05/07 00:42:18;;;;;;;2.67;2.30;;;19.80;98.10;;;;;;4927294;28;20450;-75
2023/05/07 00:44:46;;;;;;;2.47;2.27;;;19.80;98.20;;;;;;4977459;28;20441;-75
2023/05/07 00:47:17;;;;;;;2.00;1.90;;;19.80;98.20;;;;;;4978302;28;20423;-76
2023/05/07 00:49:45;;;;;;;3.43;2.33;;;19.80;98.20;;;;;;4961515;28;20445;-75
2023/05/07 00:52:15;;;;;;;2.50;2.30;;;19.70;98.20;;;;;;4995182;28;20435;-75
2023/05/07 00:54:42;;;;;;;3.00;2.30;;;19.70;98.20;;;;;;4977537;28;21093;-75
2023/05/07 00:57:10;;;;;;;2.80;2.10;;;19.70;98.20;;;;;;4939523;29;20463;-75
2023/05/07 00:59:41;;;;;;;3.80;2.50;;;19.70;98.20;;;;;;4940658;28;20828;-75
2023/05/07 01:02:09;;;;;;;2.70;2.43;;;19.70;98.20;;;;;;4966753;28;20442;-75
2023/05/07 01:04:36;;;;;;;5.00;2.57;;;19.70;98.20;;;;;;4968889;28;20423;-77
2023/05/07 01:07:03;;;;;;;2.97;2.07;;;19.70;98.30;;;;;;4958875;28;20422;-75
2023/05/07 01:09:32;;;;;;;3.33;2.40;;;19.70;98.30;;;;;;4961682;28;20961;-75
2023/05/07 01:11:58;;;;;;;2.40;2.20;;;19.70;98.30;;;;;;4974331;28;20445;-76
2023/05/07 01:14:27;;;;;;;2.67;2.47;;;19.60;98.30;;;;;;4964887;28;20440;-75
2023/05/07 01:16:53;;;;;;;2.57;2.37;;;19.70;98.30;;;;;;4961449;28;20448;-75
2023/05/07 01:19:21;;;;;;;2.27;2.07;;;19.60;98.30;;;;;;4939024;29;20464;-75
2023/05/07 01:21:49;;;;;;;2.40;2.20;;;19.60;98.20;;;;;;4956473;28;20419;-75
2023/05/07 01:24:19;;;;;;;4.00;2.30;;;19.60;98.30;;;;;;4958694;28;20900;-75
2023/05/07 01:26:45;;;;;;;4.83;2.50;;;19.60;98.30;;;;;;4942869;28;20449;-75
2023/05/07 01:29:13;;;;;;;2.73;2.40;;;19.60;98.30;;;;;;4974259;28;20813;-76
2023/05/07 01:31:47;;;;;;;3.20;2.40;;;19.60;98.30;;;;;;4974147;28;20434;-75
2023/05/07 01:34:18;;;;;;;3.20;2.43;;;19.50;98.30;;;;;;4977516;28;20428;-75
2023/05/07 01:36:47;;;;;;;2.50;2.30;;;19.60;98.40;;;;;;4994122;28;20914;-75
2023/05/07 01:39:14;;;;;;;2.60;2.20;;;19.50;98.30;;;;;;4957152;28;21019;-75
2023/05/07 01:41:41;;;;;;;3.30;2.30;;;19.50;98.30;;;;;;4957727;28;20431;-75
2023/05/07 01:44:08;;;;;;;3.43;2.23;;;19.50;98.30;;;;;;4954848;28;20464;-76
2023/05/07 01:46:34;;;;;;;3.70;2.13;;;19.50;98.40;;;;;;4922887;29;20426;-75
2023/05/07 01:49:03;;;;;;;2.20;2.00;;;19.50;98.40;;;;;;4983436;28;20538;-75
2023/05/07 01:51:30;;;;;;;2.50;2.03;;;19.50;98.40;;;;;;4950977;28;20449;-75
2023/05/07 01:53:56;;;;;;;2.60;2.20;;;19.40;98.40;;;;;;4941911;28;20797;-75
2023/05/07 01:56:23;;;;;;;2.20;2.00;;;19.40;98.30;;;;;;4957500;28;20469;-75
2023/05/07 01:58:51;;;;;;;3.03;2.73;;;19.40;98.30;;;;;;4957366;28;20459;-75
2023/05/07 02:01:17;;;;;;;2.60;2.40;;;19.40;98.30;;;;;;4957384;28;20410;-75
2023/05/07 02:03:46;;;;;;;3.67;2.40;;;19.40;98.30;;;;;;4957148;28;20446;-75
2023/05/07 02:06:19;;;;;;;2.40;2.20;;;19.40;98.30;;;;;;4947139;28;20432;-75
2023/05/07 02:08:55;;;;;;;2.40;2.20;;;19.40;98.30;;;;;;4961384;28;20914;-75
2023/05/07 02:11:21;;;;;;;2.67;2.47;;;19.40;98.30;;;;;;4970413;28;20540;-75
2023/05/07 02:13:52;;;;;;;2.57;2.37;;;19.40;98.30;;;;;;4994020;28;20954;-75
2023/05/07 02:16:19;;;;;;;4.53;2.40;;;19.40;98.30;;;;;;4976147;28;20865;-75
2023/05/07 02:18:46;;;;;;;3.07;2.40;;;19.40;98.30;;;;;;4960634;28;20505;-75
2023/05/07 02:21:12;;;;;;;3.43;2.33;;;19.30;98.20;;;;;;4964172;28;20430;-75
2023/05/07 02:23:38;;;;;;;4.80;2.10;;;19.30;98.20;;;;;;4964637;28;20441;-75
2023/05/07 02:26:06;;;;;;;2.73;2.53;;;19.30;98.30;;;;;;4976596;28;20875;-75
2023/05/07 02:28:35;;;;;;;2.63;2.43;;;19.30;98.30;;;;;;4975578;28;20426;-75
2023/05/07 02:31:04;;;;;;;2.47;2.27;;;19.30;98.30;;;;;;4966079;28;20441;-75
2023/05/07 02:33:30;;;;;;;2.50;2.30;;;19.30;98.30;;;;;;4988796;28;20826;-75
2023/05/07 02:36:05;;;;;;;2.37;2.17;;;19.30;98.30;;;;;;4972826;28;20458;-75
2023/05/07 02:38:35;;;;;;;2.50;2.30;;;19.30;98.40;;;;;;4953739;29;20471;-75
2023/05/07 02:41:04;;;;;;;3.60;2.20;;;19.30;98.40;;;;;;4963547;28;20432;-76
2023/05/07 02:43:35;;;;;;;5.60;2.23;;;19.20;98.40;;;;;;4976282;28;20449;-75
2023/05/07 02:46:08;;;;;;;2.40;2.20;;;19.20;98.40;;;;;;4953843;28;20513;-75
2023/05/07 02:48:44;;;;;;;2.40;2.20;;;19.20;98.40;;;;;;4992920;28;20939;-76
2023/05/07 02:51:10;;;;;;;3.00;2.73;;;19.20;98.50;;;;;;4959321;28;20434;-76
2023/05/07 02:53:38;;;;;;;2.50;2.30;;;19.20;98.50;;;;;;4975266;28;20572;-75
2023/05/07 02:56:07;;;;;;;2.20;2.00;;;19.20;98.50;;;;;;4992496;28;20536;-75
2023/05/07 02:58:33;;;;;;;2.67;2.47;;;19.20;98.60;;;;;;4975848;28;20461;-75
2023/05/07 03:01:02;;;;;;;4.07;2.50;;;19.20;98.50;;;;;;4959335;28;20425;-75
2023/05/07 03:03:34;;;;;;;2.27;2.07;;;19.20;98.60;;;;;;4942186;28;20458;-74
2023/05/07 03:06:06;;;;;;;2.33;2.13;;;19.10;98.50;;;;;;4943420;28;20798;-76
2023/05/07 03:08:34;;;;;;;4.30;2.03;;;19.10;98.50;;;;;;4959924;28;20512;-76
2023/05/07 03:11:05;;;;;;;2.50;2.20;;;19.10;98.60;;;;;;4986391;28;20432;-75
2023/05/07 03:13:31;;;;;;;2.33;2.13;;;19.10;98.60;;;;;;4959387;28;20441;-75
2023/05/07 03:15:57;;;;;;;2.33;2.13;;;19.10;98.60;;;;;;4956202;28;20439;-75
2023/05/07 03:18:23;;;;;;;2.33;2.13;;;19.10;98.60;;;;;;4988448;28;20481;-75
2023/05/07 03:20:49;;;;;;;2.33;2.10;;;19.10;98.60;;;;;;4975658;28;20460;-76
2023/05/07 03:23:19;;;;;;;5.40;2.20;;;19.10;98.60;;;;;;4938494;28;20476;-76
2023/05/07 03:25:49;;;;;;;2.57;2.37;;;19.00;98.60;;;;;;4974495;28;20445;-75
2023/05/07 03:28:15;;;;;;;2.63;2.10;;;19.00;98.60;;;;;;4943605;28;20445;-75
2023/05/07 03:30:50;;;;;;;2.60;2.40;;;19.00;98.60;;;;;;4972972;28;20445;-78
2023/05/07 03:33:16;;;;;;;2.63;2.40;;;19.00;98.60;;;;;;4956009;28;21014;-75
2023/05/07 03:35:44;;;;;;;2.53;2.30;;;19.00;98.60;;;;;;4956530;28;20414;-74
2023/05/07 03:38:15;;;;;;;2.00;1.90;;;19.00;98.60;;;;;;4974883;28;20518;-76
2023/05/07 03:40:41;;;;;;;2.30;2.10;;;19.00;98.60;;;;;;4958255;28;20496;-77
2023/05/07 03:43:07;;;;;;;2.70;2.50;;;19.00;98.60;;;;;;4956203;28;20489;-75
2023/05/07 03:45:36;;;;;;;2.50;2.30;;;19.00;98.60;;;;;;4955986;28;20433;-76
2023/05/07 03:48:14;;;;;;;2.53;1.97;;;19.00;98.60;;;;;;4973191;28;20450;-75
2023/05/07 03:50:43;;;;;;;2.40;2.20;;;18.90;98.60;;;;;;4991294;28;20515;-77
2023/05/07 03:53:13;;;;;;;3.03;2.00;;;18.90;98.60;;;;;;4958960;28;20452;-75
2023/05/07 03:55:41;;;;;;;2.20;2.00;;;18.90;98.60;;;;;;4975355;28;20541;-77
2023/05/07 03:58:07;;;;;;;2.33;1.90;;;18.90;98.60;;;;;;4956174;28;20549;-75
2023/05/07 04:00:37;;;;;;;2.50;2.10;;;18.90;98.60;;;;;;4972540;28;20178;-75
2023/05/07 04:03:10;;;;;;;2.60;2.20;;;18.90;98.60;;;;;;4990890;28;20449;-75
2023/05/07 04:05:39;;;;;;;2.80;2.20;;;18.90;98.60;;;;;;4974913;28;20479;-74
2023/05/07 04:08:05;;;;;;;2.40;2.13;;;18.90;98.80;;;;;;4958601;28;21150;-75
2023/05/07 04:10:43;;;;;;;2.30;2.17;;;18.80;98.60;;;;;;4977405;28;20445;-75
2023/05/07 04:13:10;;;;;;;2.80;1.97;;;18.80;98.60;;;;;;4924432;28;20441;-75
2023/05/07 04:15:41;;;;;;;2.30;2.10;;;18.80;98.60;;;;;;4959347;28;20942;-75
2023/05/07 04:18:12;;;;;;;2.57;2.37;;;18.80;98.60;;;;;;4973498;28;20545;-75
2023/05/07 04:20:43;;;;;;;2.80;2.27;;;18.80;98.60;;;;;;4958841;28;20430;-75
2023/05/07 04:23:12;;;;;;;2.37;1.93;;;18.80;98.60;;;;;;4974612;28;20452;-74
2023/05/07 04:25:41;;;;;;;3.10;2.23;;;18.80;98.70;;;;;;4975365;28;20405;-75
2023/05/07 04:28:15;;;;;;;2.37;1.90;;;18.80;98.70;;;;;;4991241;28;20762;-75
2023/05/07 04:30:42;;;;;;;2.33;2.13;;;18.80;98.70;;;;;;4975656;28;20424;-74
2023/05/07 04:33:09;;;;;;;2.43;2.23;;;18.70;98.70;;;;;;4975570;28;20440;-75
2023/05/07 04:35:36;;;;;;;4.90;2.03;;;18.70;98.60;;;;;;4955487;28;20420;-76
2023/05/07 04:38:06;;;;;;;3.73;2.40;;;18.70;98.70;;;;;;4945136;28;20824;-72
2023/05/07 04:40:38;;;;;;;2.33;1.90;;;18.70;98.70;;;;;;4963278;28;20537;-71
2023/05/07 04:43:07;;;;;;;2.50;2.23;;;18.70;98.70;;;;;;4926056;28;20453;-72
2023/05/07 04:45:41;;;;;;;2.57;1.80;;;18.70;98.70;;;;;;4960327;28;20436;-72
2023/05/07 04:48:14;;;;;;;2.03;1.90;;;18.70;98.70;;;;;;4977555;28;20555;-73
2023/05/07 04:50:40;;;;;;;1.80;1.70;;;18.70;98.70;;;;;;4977755;28;20408;-74
2023/05/07 04:53:09;;;;;;;1.77;1.50;;;18.70;98.70;;;;;;4971010;28;20502;-73
2023/05/07 04:55:40;;;;;;;2.10;1.90;;;18.70;98.70;;;;;;4964756;28;20431;-73
2023/05/07 04:58:11;;;;;;;3.23;2.13;;;18.70;98.70;;;;;;4977275;28;20460;-72
2023/05/07 05:00:40;;;;;;;3.20;1.80;;;18.60;98.70;;;;;;4971236;28;20943;-73
2023/05/07 05:03:08;;;;;;;2.47;1.90;;;18.60;98.70;;;;;;4960949;28;20452;-72
2023/05/07 05:05:37;;;;;;;2.20;2.10;;;18.60;98.70;;;;;;4976160;28;20417;-73
2023/05/07 05:08:04;;;;;;;2.80;2.30;;;18.60;98.70;;;;;;4972702;28;20437;-72
2023/05/07 05:10:30;;;;;;;2.70;2.13;;;18.60;98.80;;;;;;4970840;28;20464;-72
2023/05/07 05:12:56;;;;;;;2.40;2.20;;;18.60;98.80;;;;;;4959230;28;20500;-73
2023/05/07 05:15:28;;;;;;;2.20;2.00;;;18.60;98.80;;;;;;4989737;28;20420;-73
2023/05/07 05:17:54;;;;;;;2.10;1.90;;;18.60;98.80;;;;;;4976142;28;20425;-73
2023/05/07 05:20:25;;;;;;;3.70;2.20;;;18.60;98.80;;;;;;4960703;28;20889;-73
2023/05/07 05:22:54;;;;;;;2.13;1.93;;;18.60;98.80;;;;;;4959439;28;20460;-72
2023/05/07 05:25:23;;;;;;;2.87;2.67;;;18.50;98.70;;;;;;4993542;28;20405;-73
2023/05/07 05:27:49;;;;;;;1.93;1.73;;;18.50;98.70;;;;;;4945814;28;21002;-72
2023/05/07 05:30:20;;;;;;;2.40;2.20;;;18.50;98.70;;;;;;4956854;28;20912;-73
2023/05/07 05:32:46;;;;;;;2.70;2.47;;;18.50;98.60;;;;;;4992186;28;20965;-72
2023/05/07 05:35:15;;;;;;;2.37;2.17;;;18.50;98.60;;;;;;4976217;28;20443;-72
2023/05/07 05:37:48;;;;;;;2.60;2.40;;;18.50;98.60;;;;;;4975071;28;20920;-73
2023/05/07 05:40:16;;;;;;;2.50;2.30;;;18.50;98.50;;;;;;4959720;28;20441;-73
2023/05/07 05:42:44;;;;;;;2.17;1.97;;;18.50;98.50;;;;;;4940432;28;20867;-72
2023/05/07 05:45:11;;;;;;;2.33;2.10;;;18.50;98.50;;;;;;4957361;28;20410;-73
2023/05/07 05:47:41;;;;;;;2.40;2.20;;;18.50;98.40;;;;;;4960234;28;20416;-73
2023/05/07 05:50:07;;;;;;;3.10;2.40;;;18.50;98.40;;;;;;4959784;28;20512;-73
2023/05/07 05:52:36;;;;;;;2.70;2.50;;;18.50;98.40;;;;;;4956285;28;20450;-73
2023/05/07 05:55:02;;;;;;;1.87;1.77;;;18.50;98.30;;;;;;4972679;28;20958;-72
2023/05/07 05:57:30;;;;;;;2.60;1.90;;;18.50;98.30;;;;;;4959675;28;20469;-73
2023/05/07 05:59:58;;;;;;;2.27;2.10;;;18.50;98.20;;;;;;4936941;29;20549;-73
2023/05/07 06:02:26;;;;;;;2.00;1.80;;;18.50;98.20;;;;;;4954726;28;20847;-72
2023/05/07 06:04:58;;;;;;;3.23;2.07;;;18.50;98.20;;;;;;4959501;28;20424;-71
2023/05/07 06:07:24;;;;;;;3.47;1.90;;;18.50;98.10;;;;;;4959940;28;20447;-71
2023/05/07 06:09:50;;;;;;;2.80;2.37;;;18.50;98.00;;;;;;4953989;28;20808;-71
2023/05/07 06:12:16;;;;;;;2.87;2.37;;;18.50;98.00;;;;;;4952920;28;20447;-71
2023/05/07 06:14:45;;;;;;;4.33;2.13;;;18.50;97.90;;;;;;4968568;28;20781;-71
2023/05/07 06:17:20;;;;;;;2.00;1.77;;;18.50;98.00;;;;;;4957045;28;20791;-72
2023/05/07 06:19:46;;;;;;;2.00;1.83;;;18.50;98.10;;;;;;4972898;28;20470;-71
2023/05/07 06:22:16;;;;;;;2.10;1.90;;;18.50;98.20;;;;;;4971619;28;20976;-71
2023/05/07 06:24:45;;;;;;;2.47;2.10;;;18.50;98.20;;;;;;4990883;28;20512;-71
2023/05/07 06:27:14;;;;;;;3.87;2.57;;;18.50;98.10;;;;;;4958727;28;20437;-71
2023/05/07 06:29:45;;;;;;;2.30;2.10;;;18.50;98.20;;;;;;4938688;28;20993;-71
2023/05/07 06:32:14;;;;;;;2.93;2.67;;;18.50;98.30;;;;;;4971454;28;20449;-71
2023/05/07 06:34:42;;;;;;;2.67;2.47;;;18.40;98.20;;;;;;4968367;28;20491;-71
2023/05/07 06:37:11;;;;;;;2.90;2.03;;;18.50;98.70;;;;;;4959671;28;20425;-72
2023/05/07 06:40:04;;;;;;;2.30;2.10;;;18.50;98.30;;;;;;4961283;28;20989;-72
2023/05/07 06:42:34;;;;;;;2.10;1.90;;;18.50;98.20;;;;;;4952228;28;21068;-73
2023/05/07 06:45:19;;;;;;;3.60;2.20;;;18.50;98.20;;;;;;4976539;28;20929;-73
2023/05/07 06:47:48;;;;;;;2.30;2.10;;;18.50;98.10;;;;;;4961761;28;20450;-72
2023/05/07 06:50:19;;;;;;;3.20;2.30;;;18.50;98.00;;;;;;4956069;28;20409;-73
2023/05/07 06:52:48;;;;;;;2.20;2.00;;;18.50;98.00;;;;;;4975943;28;20460;-73
2023/05/07 06:55:14;;;;;;;2.30;2.10;;;18.50;98.00;;;;;;4975747;28;20445;-72
2023/05/07 06:57:40;;;;;;;2.53;2.10;;;18.50;98.00;;;;;;4933564;28;20449;-72
2023/05/07 07:00:10;;;;;;;4.13;2.10;;;18.50;97.90;;;;;;4973646;28;20458;-72
2023/05/07 07:02:47;;;;;;;2.90;1.90;;;18.50;97.90;;;;;;4975160;28;20467;-72
2023/05/07 07:05:19;;;;;;;2.40;2.20;;;18.50;97.90;;;;;;4959131;28;20416;-72
2023/05/07 07:07:52;;;;;;;2.37;2.17;;;18.50;97.90;;;;;;4975694;28;20818;-72
2023/05/07 07:10:20;;;;;;;2.10;1.90;;;18.50;97.80;;;;;;4983676;28;20923;-72
2023/05/07 07:12:46;;;;;;;2.30;2.10;;;18.50;97.90;;;;;;4956156;28;20450;-72
2023/05/07 07:15:14;;;;;;;3.30;2.30;;;18.50;97.90;;;;;;4956441;28;20390;-72
2023/05/07 07:17:41;;;;;;;2.67;1.90;;;18.50;97.90;;;;;;4975875;28;20488;-72
2023/05/07 07:20:07;;;;;;;2.73;2.23;;;18.50;97.90;;;;;;4958660;28;20519;-72
2023/05/07 07:22:34;;;;;;;2.70;2.50;;;18.50;98.00;;;;;;4956306;28;20449;-72
2023/05/07 07:25:02;;;;;;;3.47;2.40;;;18.50;98.10;;;;;;4956463;28;20423;-72
2023/05/07 07:27:31;;;;;;;3.30;2.20;;;18.50;98.10;;;;;;4945529;28;20422;-72
2023/05/07 07:30:00;;;;;;;2.30;2.07;;;18.50;98.10;;;;;;4959665;28;20452;-74
2023/05/07 07:32:29;;;;;;;4.30;2.10;;;18.50;98.10;;;;;;4937039;28;20453;-73
2023/05/07 07:35:00;;;;;;;2.30;2.10;;;18.50;98.00;;;;;;4972111;28;20544;-72
2023/05/07 07:37:29;;;;;;;4.17;2.23;;;18.50;98.00;;;;;;4956303;28;20469;-72
2023/05/07 07:39:56;;;;;;;2.30;2.10;;;18.50;98.10;;;;;;4955956;28;20464;-72
2023/05/07 07:42:22;;;;;;;3.80;2.30;;;18.50;98.10;;;;;;4973243;28;20453;-72
2023/05/07 07:44:48;;;;;;;2.50;2.03;;;18.60;98.20;;;;;;4958929;28;20915;-72
2023/05/07 07:47:17;;;;;;;2.33;1.93;;;18.60;98.30;;;;;;4936799;29;20447;-72
2023/05/07 07:49:46;;;;;;;3.67;2.30;;;18.60;98.40;;;;;;4936969;29;20438;-72
2023/05/07 07:52:12;;;;;;;3.97;2.33;;;18.60;98.40;;;;;;4953196;28;20447;-74
2023/05/07 07:54:38;;;;;;;2.90;2.13;;;18.60;98.60;;;;;;4922060;29;20419;-74
2023/05/07 07:57:06;;;;;;;2.90;2.47;;;18.60;98.60;;;;;;4940250;28;20453;-71
2023/05/07 07:59:35;;;;;;;2.20;2.00;;;18.60;98.60;;;;;;4974998;28;20839;-71
2023/05/07 08:02:05;;;;;;;3.03;1.87;;;18.60;98.70;;;;;;4957422;28;20503;-72
2023/05/07 08:04:32;;;;;;;2.87;2.23;;;18.70;98.70;;;;;;4975485;28;20580;-72
2023/05/07 08:07:04;;;;;;;2.97;2.13;;;18.60;98.60;;;;;;4976867;28;20445;-72
2023/05/07 08:09:35;;;;;;;4.13;2.60;;;18.70;98.70;;;;;;4972336;28;20477;-73
2023/05/07 08:12:05;;;;;;;2.30;2.10;;;18.70;98.80;;;;;;4976970;28;20448;-72
2023/05/07 08:14:36;;;;;;;1.97;1.87;;;18.70;98.70;;;;;;4974952;28;20491;-73
2023/05/07 08:17:04;;;;;;;2.30;2.10;;;18.70;98.60;;;;;;4952037;28;20563;-74
2023/05/07 08:19:30;;;;;;;2.90;2.30;;;18.70;98.60;;;;;;4975418;28;20837;-74
2023/05/07 08:22:02;;;;;;;2.50;2.17;;;18.70;98.70;;;;;;4992491;28;20452;-73
2023/05/07 08:24:28;;;;;;;2.10;1.90;;;18.70;98.70;;;;;;4975157;28;20462;-71
2023/05/07 08:26:59;;;;;;;2.80;2.37;;;18.80;98.80;;;;;;4991930;28;20421;-74
2023/05/07 08:29:30;;;;;;;2.77;2.23;;;18.80;98.60;;;;;;4960709;28;20422;-73
2023/05/07 08:31:59;;;;;;;2.13;1.90;;;18.80;98.60;;;;;;4991461;28;20781;-74
2023/05/07 08:34:30;;;;;;;3.03;2.27;;;18.80;98.50;;;;;;4974964;28;20446;-73
2023/05/07 08:37:03;;;;;;;2.50;2.30;;;18.80;98.60;;;;;;4994340;28;20451;-72
2023/05/07 08:39:33;;;;;;;2.43;2.23;;;18.80;98.90;;;;;;4973838;28;20515;-72
2023/05/07 08:42:04;;;;;;;3.60;2.30;;;18.90;98.70;;;;;;4971483;28;20479;-72
2023/05/07 08:44:37;;;;;;;2.50;2.30;;;18.90;98.60;;;;;;4991334;28;20406;-72
2023/05/07 08:47:07;;;;;;;2.50;2.30;;;18.90;98.60;;;;;;4994218;28;20436;-72
2023/05/07 08:49:34;;;;;;;2.30;2.10;;;18.90;98.50;;;;;;4978088;28;20398;-72
2023/05/07 08:52:06;;;;;;;2.37;2.17;;;19.00;98.70;;;;;;4959868;28;20515;-72
2023/05/07 08:54:38;;;;;;;2.43;1.70;;;18.90;98.60;;;;;;4942910;28;20430;-72
2023/05/07 08:57:04;;;;;;;2.50;2.30;;;19.00;98.60;;;;;;4993954;28;20828;-72
2023/05/07 08:59:33;;;;;;;1.87;1.73;;;19.00;98.60;;;;;;4958600;28;20456;-72
2023/05/07 09:01:59;;;;;;;2.30;2.10;;;19.00;98.60;;;;;;4976844;28;20446;-72
2023/05/07 09:04:31;;;;;;;1.87;1.70;;;19.10;98.60;;;;;;4974180;28;20461;-72
2023/05/07 09:07:03;;;;;;;2.30;2.00;;;19.10;98.50;;;;;;4973708;28;21010;-71
2023/05/07 09:09:31;;;;;;;1.60;1.50;;;19.10;98.50;;;;;;4989819;28;20517;-72
2023/05/07 09:12:00;;;;;;;8.97;2.30;;;19.10;98.40;;;;;;4972112;28;20817;-75
2023/05/07 09:14:28;;;;;;;1.93;1.83;;;19.10;98.40;;;;;;4961768;28;20461;-75
2023/05/07 09:16:59;;;;;;;1.87;1.77;;;19.20;98.50;;;;;;4978100;28;20404;-71
2023/05/07 09:19:28;;;;;;;1.97;1.87;;;19.20;98.40;;;;;;4976869;28;20545;-73
2023/05/07 09:22:07;;;;;;;1.80;1.63;;;19.20;98.50;;;;;;4964768;28;20414;-74
2023/05/07 09:24:52;;;;;;;3.40;2.23;;;19.20;98.40;;;;;;4957030;28;20449;-74
2023/05/07 09:27:22;;;;;;;2.10;1.90;;;19.30;98.50;;;;;;4989965;28;20452;-74
2023/05/07 09:29:51;;;;;;;2.50;2.30;;;19.30;98.40;;;;;;4976354;28;20429;-73
2023/05/07 09:32:18;;;;;;;3.70;2.50;;;19.30;98.50;;;;;;4976730;28;20476;-73
2023/05/07 09:34:44;;;;;;;2.47;2.27;;;19.40;98.40;;;;;;4975611;28;20449;-72
2023/05/07 09:37:14;;;;;;;2.80;1.90;;;19.40;98.40;;;;;;4977792;28;20818;-73
2023/05/07 09:39:44;;;;;;;1.93;1.83;;;19.40;98.70;;;;;;4970467;28;20474;-73
2023/05/07 09:42:12;;;;;;;2.43;2.10;;;19.40;98.30;;;;;;4961435;28;20581;-75
2023/05/07 09:44:38;;;;;;;2.20;1.97;;;19.50;98.30;;;;;;4977466;28;20457;-77
2023/05/07 09:47:10;;;;;;;2.30;2.10;;;19.50;98.30;;;;;;4923157;29;20936;-75
2023/05/07 09:49:47;;;;;;;2.03;1.83;;;19.50;98.20;;;;;;4956642;29;20440;-76
2023/05/07 09:52:16;;;;;;;2.50;2.30;;;19.50;98.20;;;;;;4970203;28;20447;-75
2023/05/07 09:54:49;;;;;;;2.20;2.07;;;19.60;98.20;;;;;;4955697;28;20438;-72
2023/05/07 09:57:20;;;;;;;1.77;1.67;;;19.60;98.10;;;;;;4977898;28;20473;-72
2023/05/07 09:59:51;;;;;;;2.10;1.90;;;19.70;98.00;;;;;;4939279;28;20459;-72
2023/05/07 10:02:23;;;;;;;1.77;1.67;;;19.60;97.90;;;;;;4941032;28;20543;-72
2023/05/07 10:04:53;;;;;;;1.87;1.77;;;19.70;97.90;;;;;;4974607;28;20421;-72
2023/05/07 10:07:25;;;;;;;2.17;1.97;;;19.70;97.90;;;;;;4957810;28;20912;-72
2023/05/07 10:09:55;;;;;;;2.60;2.13;;;19.70;97.80;;;;;;4966825;28;20430;-72
2023/05/07 10:12:30;;;;;;;1.80;1.70;;;19.80;97.80;;;;;;4961983;28;20478;-72
2023/05/07 10:14:56;;;;;;;3.83;1.93;;;19.80;97.80;;;;;;4940005;29;20442;-78
2023/05/07 10:17:25;;;;;;;2.20;2.00;;;19.80;97.80;;;;;;4925721;29;20435;-78
2023/05/07 10:19:53;;;;;;;3.10;1.90;;;19.90;97.70;;;;;;4942854;29;20447;-79
2023/05/07 10:22:21;;;;;;;3.40;2.40;;;19.90;97.70;;;;;;4959176;29;20514;-82
2023/05/07 10:24:52;;;;;;;1.80;1.70;;;19.90;97.60;;;;;;4941142;28;20487;-79
2023/05/07 10:27:21;;;;;;;4.00;2.30;;;19.90;97.60;;;;;;4955305;29;20392;-77
2023/05/07 10:30:29;;;;;;;2.37;1.70;;;20.00;97.60;;;;;;4940317;29;20421;-77
2023/05/07 10:33:05;;;;;;;2.60;2.40;;;20.00;97.60;;;;;;4942215;28;20504;-77
2023/05/07 10:35:42;;;;;;;1.97;1.70;;;20.00;97.50;;;;;;4974693;28;20454;-77
2023/05/07 10:38:09;;;;;;;3.73;2.10;;;20.00;97.50;;;;;;4974579;28;20404;-77
2023/05/07 10:40:38;;;;;;;2.20;1.70;;;20.00;97.50;;;;;;4945358;28;20437;-79
2023/05/07 10:43:07;;;;;;;1.77;1.67;;;20.10;97.50;;;;;;4976346;28;20453;-74
2023/05/07 10:45:39;;;;;;;2.40;2.20;;;20.10;97.50;;;;;;4957090;28;20979;-72
2023/05/07 10:48:08;;;;;;;1.80;1.57;;;20.10;97.40;;;;;;4966019;28;20933;-75
2023/05/07 10:50:35;;;;;;;2.10;2.00;;;20.20;97.40;;;;;;4956478;28;20424;-75
2023/05/07 10:53:20;;;;;;;2.20;1.90;;;20.20;97.40;;;;;;4956338;28;20439;-74
2023/05/07 10:56:16;;;;;;;3.13;1.83;;;20.30;97.40;;;;;;4941945;28;21115;-74
2023/05/07 10:58:45;;;;;;;2.33;2.13;;;20.30;97.30;;;;;;4940434;28;20998;-75
2023/05/07 11:01:51;;;;;;;2.03;1.70;;;20.30;97.20;;;;;;4990730;28;20453;-74
2023/05/07 11:04:28;;;;;;;2.53;1.80;;;20.40;97.30;;;;;;4971666;28;20960;-75
2023/05/07 11:07:08;;;;;;;1.60;1.50;;;20.40;97.20;;;;;;4991769;28;20916;-75
2023/05/07 11:09:51;;;;;;;1.80;1.70;;;20.40;97.20;;;;;;4959579;28;20932;-74
2023/05/07 11:12:40;;;;;;;2.50;1.70;;;20.50;97.20;;;;;;4941019;28;20522;-74
2023/05/07 11:15:36;;;;;;;3.90;1.67;;;20.50;97.10;;;;;;4941880;28;20447;-74
2023/05/07 11:18:08;;;;;;;5.20;2.63;;;20.50;96.80;;;;;;4971841;28;20748;-74
2023/05/07 11:20:51;;;;;;;2.60;1.87;;;20.60;96.60;;;;;;4950986;28;20866;-76
2023/05/07 11:23:38;;;;;;;1.87;1.63;;;20.60;96.30;;;;;;4970330;28;20448;-73
2023/05/07 11:26:25;;;;;;;2.73;1.83;;;20.60;96.20;;;;;;4969153;28;20502;-74
2023/05/07 11:28:54;;;;;;;1.97;1.80;;;20.70;96.10;;;;;;4968228;28;20459;-73
2023/05/07 11:31:29;;;;;;;2.13;1.93;;;20.70;96.00;;;;;;4955874;28;20511;-70
2023/05/07 11:33:57;;;;;;;1.87;1.77;;;20.70;96.30;;;;;;4955139;28;20454;-72
2023/05/07 11:36:30;;;;;;;1.93;1.50;;;20.80;95.80;;;;;;4956137;28;20425;-73
2023/05/07 11:38:56;;;;;;;4.20;2.13;;;20.80;95.80;;;;;;4948759;28;20474;-72
2023/05/07 11:41:39;;;;;;;1.60;1.50;;;20.80;95.70;;;;;;4953697;29;20403;-71
2023/05/07 11:44:05;;;;;;;4.73;1.57;;;20.80;95.60;;;;;;4956803;28;20433;-73
2023/05/07 11:46:33;;;;;;;5.60;1.70;;;20.90;95.60;;;;;;4959039;28;20412;-71
2023/05/07 11:49:01;;;;;;;1.90;1.80;;;20.90;95.60;;;;;;4975458;28;20785;-72
2023/05/07 11:51:30;;;;;;;1.80;1.70;;;20.90;95.50;;;;;;4940527;28;20457;-71
2023/05/07 11:53:58;;;;;;;2.07;1.87;;;21.00;95.50;;;;;;4990220;28;20977;-72
2023/05/07 11:56:24;;;;;;;2.80;2.00;;;21.00;95.40;;;;;;4974478;28;20524;-72
2023/05/07 11:58:51;;;;;;;1.90;1.40;;;21.00;95.30;;;;;;4957758;28;20459;-72
2023/05/07 12:01:18;;;;;;;1.60;1.50;;;21.00;95.30;;;;;;4944955;28;20427;-71
2023/05/07 12:03:46;;;;;;;1.57;1.47;;;21.00;95.20;;;;;;4974219;28;20458;-72
2023/05/07 12:06:16;;;;;;;1.90;1.70;;;21.00;95.50;;;;;;4964644;28;20804;-72
2023/05/07 12:08:43;;;;;;;2.43;1.63;;;21.10;95.20;;;;;;4939858;28;20446;-73
2023/05/07 12:11:13;;;;;;;1.90;1.67;;;21.10;95.20;;;;;;4987088;28;20433;-74
2023/05/07 12:13:41;;;;;;;2.30;2.10;;;21.10;95.50;;;;;;4989589;28;20447;-72
2023/05/07 12:16:12;;;;;;;1.70;1.60;;;21.10;95.40;;;;;;4986662;28;20855;-72
2023/05/07 12:18:42;;;;;;;3.30;2.03;;;21.10;95.50;;;;;;4951461;28;20869;-72
2023/05/07 12:21:08;;;;;;;1.97;1.43;;;21.20;95.60;;;;;;4955599;28;20453;-71
2023/05/07 12:23:36;;;;;;;1.67;1.57;;;21.20;95.60;;;;;;4991871;28;20455;-71
2023/05/07 12:26:07;;;;;;;4.60;2.13;;;21.20;95.70;;;;;;4959508;28;20458;-72
2023/05/07 12:28:38;;;;;;;1.80;1.70;;;21.20;95.70;;;;;;4956894;28;21010;-71
2023/05/07 12:31:07;;;;;;;1.87;1.70;;;21.20;95.70;;;;;;4973990;28;20428;-72
2023/05/07 12:33:39;;;;;;;2.23;1.90;;;21.20;95.80;;;;;;4964731;28;20448;-71
2023/05/07 12:36:08;;;;;;;5.63;2.00;;;21.20;95.80;;;;;;4972224;28;20503;-71
2023/05/07 12:38:38;;;;;;;3.77;2.50;;;21.30;95.90;;;;;;4972197;28;20965;-71
2023/05/07 12:41:05;;;;;;;1.90;1.80;;;21.30;95.90;;;;;;4975026;28;20455;-70
2023/05/07 12:43:34;;;;;;;2.50;2.30;;;21.30;95.90;;;;;;4956024;28;20490;-72
2023/05/07 12:46:06;;;;;;;1.97;1.77;;;21.30;95.90;;;;;;4990615;28;20443;-73
2023/05/07 12:48:32;;;;;;;2.50;2.30;;;21.30;96.30;;;;;;4973798;28;20511;-70
2023/05/07 12:51:00;;;;;;;2.50;1.80;;;21.30;95.90;;;;;;4972301;28;20785;-70
2023/05/07 12:53:31;;;;;;;2.20;2.00;;;21.30;95.90;;;;;;4941608;28;20446;-71
2023/05/07 12:55:59;;;;;;;2.23;2.03;;;21.30;96.00;;;;;;4992089;28;20431;-71
2023/05/07 12:58:31;;;;;;;2.40;2.27;;;21.30;96.00;;;;;;4957480;28;20505;-71
2023/05/07 13:01:04;;;;;;;2.20;2.00;;;21.40;96.10;;;;;;4942094;28;20447;-71